Fallston, North Carolina
Current Conditions -  °F | °C
As of 9:55 AM on Monday 22 Dec 2014 (Local Time) from KEHO Reporting Station
Haze Haze  
Wind Chill: 32°   Ceiling: 600
Heat Index: 38°   Visibility: 2.5mi
Dew Point: 36°   Wind: 8mph
Humidity: 95%   Direction: 30°NNE
Pressure: 30.13"   Gusts: NA
Location:  35.43°N, 81.5°W
Report Text: KEHO 221455Z AUTO 03007KT 2 1/2SM BR OVC006 03/02 A3013 RMK AO2 60001 T00310024
Loading
Personal Weather Stations






























Interactive Weather Map New forecast layout! Learn more

10-Day Weather Forecast

Advertisements
Track Severe Weather on mobile